createdAt,value
2018-07-22T00:03:32.279Z,19.50
2018-07-22T00:06:00.843Z,19.50
2018-07-22T00:08:29.355Z,19.30
2018-07-22T00:10:57.944Z,19.30
2018-07-22T00:13:26.516Z,19.20
2018-07-22T00:15:55.256Z,19.20
2018-07-22T00:18:23.751Z,19.10
2018-07-22T00:20:52.312Z,19.10
2018-07-22T00:23:20.881Z,19.00
2018-07-22T00:25:49.411Z,19.00
2018-07-22T00:28:18.579Z,19.00
2018-07-22T00:30:47.136Z,19.00
2018-07-22T00:33:15.730Z,19.00
2018-07-22T00:35:44.231Z,19.00
2018-07-22T00:38:12.787Z,19.00
2018-07-22T00:40:41.258Z,19.00
2018-07-22T00:43:09.779Z,19.00
2018-07-22T00:45:38.273Z,18.90
2018-07-22T00:48:06.833Z,18.90
2018-07-22T00:50:35.364Z,18.90
2018-07-22T00:53:03.944Z,18.80
2018-07-22T00:55:32.379Z,18.80
2018-07-22T00:58:01.062Z,18.70
2018-07-22T01:00:29.590Z,18.70
2018-07-22T01:02:58.157Z,18.70
2018-07-22T01:05:26.781Z,18.70
2018-07-22T01:07:55.323Z,18.60
2018-07-22T01:10:23.889Z,18.60
2018-07-22T01:12:52.496Z,18.50
2018-07-22T01:15:21.189Z,18.50
2018-07-22T01:17:49.654Z,18.50
2018-07-22T01:20:18.164Z,18.50
2018-07-22T01:22:46.628Z,18.40
2018-07-22T01:25:15.131Z,18.40
2018-07-22T01:27:44.393Z,18.30
2018-07-22T01:30:12.913Z,18.30
2018-07-22T01:32:41.398Z,18.30
2018-07-22T01:35:09.869Z,18.20
2018-07-22T01:37:45.073Z,18.30
2018-07-22T01:40:13.689Z,18.30
2018-07-22T01:42:42.155Z,18.20
2018-07-22T01:45:10.746Z,18.20
2018-07-22T01:47:39.470Z,18.20
2018-07-22T01:50:08.115Z,18.20
2018-07-22T01:52:36.826Z,18.20
2018-07-22T01:55:08.326Z,18.10
2018-07-22T01:57:36.972Z,18.10
2018-07-22T02:00:05.446Z,18.10
2018-07-22T02:02:33.922Z,18.00
2018-07-22T02:05:02.435Z,18.00
2018-07-22T02:07:30.957Z,18.00
2018-07-22T02:09:59.504Z,18.00
2018-07-22T02:12:27.991Z,18.00
2018-07-22T02:14:56.498Z,17.90
2018-07-22T02:17:25.014Z,17.90
2018-07-22T02:19:53.579Z,17.90
2018-07-22T02:22:22.141Z,17.90
2018-07-22T02:24:51.511Z,17.90
2018-07-22T02:27:20.004Z,17.90
2018-07-22T02:29:49.462Z,17.90
2018-07-22T02:32:18.071Z,17.90
2018-07-22T02:34:46.592Z,17.90
2018-07-22T02:37:15.166Z,17.90
2018-07-22T02:39:43.681Z,17.90
2018-07-22T02:42:12.224Z,18.00
2018-07-22T02:44:40.962Z,18.00
2018-07-22T02:47:09.536Z,18.00
2018-07-22T02:49:38.073Z,18.00
2018-07-22T02:52:06.717Z,18.00
2018-07-22T02:54:35.189Z,17.90
2018-07-22T02:57:03.700Z,17.90
2018-07-22T02:59:32.311Z,17.90
2018-07-22T03:02:00.848Z,17.80
2018-07-22T03:04:29.329Z,17.80
2018-07-22T03:06:57.967Z,17.80
2018-07-22T03:09:26.449Z,17.70
2018-07-22T03:11:54.995Z,17.70
2018-07-22T03:14:23.522Z,17.70
2018-07-22T03:16:52.015Z,17.70
2018-07-22T03:19:20.622Z,17.70
2018-07-22T03:21:49.139Z,17.70
2018-07-22T03:24:17.575Z,17.70
2018-07-22T03:26:46.165Z,17.70
2018-07-22T03:29:14.680Z,17.70
2018-07-22T03:31:43.142Z,17.70
2018-07-22T03:34:11.592Z,17.70
2018-07-22T03:36:40.198Z,17.70
2018-07-22T03:39:10.076Z,17.70
2018-07-22T03:41:38.902Z,17.70
2018-07-22T03:44:07.695Z,17.70
2018-07-22T03:46:36.406Z,17.60
2018-07-22T03:49:04.980Z,17.70
2018-07-22T03:51:33.459Z,17.60
2018-07-22T03:54:02.134Z,17.70
2018-07-22T03:56:30.636Z,17.70
2018-07-22T03:58:59.247Z,17.70
2018-07-22T04:01:27.827Z,17.70
2018-07-22T04:03:56.347Z,17.70
2018-07-22T04:06:24.840Z,17.70
2018-07-22T04:08:53.334Z,17.70
2018-07-22T04:11:21.812Z,17.70
2018-07-22T04:13:50.326Z,17.60
2018-07-22T04:16:18.839Z,17.60
2018-07-22T04:18:52.442Z,17.60
2018-07-22T04:21:22.375Z,17.60
2018-07-22T04:23:51.223Z,17.70
2018-07-22T04:26:20.551Z,17.70
2018-07-22T04:28:49.332Z,17.60
2018-07-22T04:31:17.848Z,17.70
2018-07-22T04:33:46.369Z,17.70
2018-07-22T04:36:14.864Z,17.70
2018-07-22T04:38:43.378Z,17.70
2018-07-22T04:41:11.858Z,17.80
2018-07-22T04:43:40.456Z,17.80
2018-07-22T04:46:08.994Z,17.90
2018-07-22T04:48:37.450Z,18.10
2018-07-22T04:51:06.300Z,18.30
2018-07-22T04:53:34.876Z,18.50
2018-07-22T04:56:03.751Z,18.60
2018-07-22T04:58:32.283Z,18.70
2018-07-22T05:01:00.824Z,18.80
2018-07-22T05:03:29.296Z,18.80
2018-07-22T05:05:57.791Z,18.90
2018-07-22T05:08:26.268Z,19.00
2018-07-22T05:10:54.755Z,19.00
2018-07-22T05:13:23.955Z,19.10
2018-07-22T05:15:52.552Z,19.20
2018-07-22T05:18:21.032Z,19.30
2018-07-22T05:20:49.519Z,19.50
2018-07-22T05:23:18.022Z,19.60
2018-07-22T05:25:46.569Z,19.80
2018-07-22T05:28:15.060Z,19.90
2018-07-22T05:30:43.574Z,20.10
2018-07-22T05:33:12.123Z,20.20
2018-07-22T05:35:40.673Z,20.30
2018-07-22T05:38:09.150Z,20.50
2018-07-22T05:40:37.723Z,20.70
2018-07-22T05:43:06.375Z,20.90
2018-07-22T05:45:34.837Z,21.10
2018-07-22T05:48:03.285Z,21.30
2018-07-22T05:50:31.889Z,21.50
2018-07-22T05:53:00.364Z,21.50
2018-07-22T05:55:28.874Z,21.50
2018-07-22T05:57:57.393Z,21.50
2018-07-22T06:00:32.319Z,21.60
2018-07-22T06:03:01.423Z,21.70
2018-07-22T06:05:29.887Z,21.60
2018-07-22T06:07:58.452Z,21.60
2018-07-22T06:10:27.199Z,21.50
2018-07-22T06:12:55.757Z,21.50
2018-07-22T06:15:24.310Z,21.50
2018-07-22T06:17:52.811Z,21.40
2018-07-22T06:20:21.333Z,21.30
2018-07-22T06:22:49.846Z,21.40
2018-07-22T06:25:18.314Z,21.40
2018-07-22T06:27:46.905Z,21.40
2018-07-22T06:30:15.503Z,21.50
2018-07-22T06:32:44.069Z,21.60
2018-07-22T06:35:12.772Z,21.70
2018-07-22T06:37:41.427Z,21.70
2018-07-22T06:40:09.961Z,21.80
2018-07-22T06:42:38.756Z,21.80
2018-07-22T06:45:07.377Z,21.90
2018-07-22T06:47:35.920Z,22.00
2018-07-22T06:50:04.831Z,22.20
2018-07-22T06:52:33.383Z,22.50
2018-07-22T06:55:01.856Z,22.70
2018-07-22T06:57:30.326Z,22.90
2018-07-22T06:59:58.827Z,23.20
2018-07-22T07:02:27.298Z,23.50
2018-07-22T07:05:00.327Z,23.70
2018-07-22T07:07:28.760Z,23.70
2018-07-22T07:09:57.308Z,23.50
2018-07-22T07:12:26.754Z,23.40
2018-07-22T07:14:55.272Z,23.40
2018-07-22T07:17:25.850Z,23.30
2018-07-22T07:19:54.471Z,23.20
2018-07-22T07:22:23.043Z,23.10
2018-07-22T07:24:51.757Z,23.00
2018-07-22T07:27:20.230Z,22.90
2018-07-22T07:29:48.731Z,22.80
2018-07-22T07:32:17.199Z,22.70
2018-07-22T07:34:45.728Z,22.70
2018-07-22T07:37:14.812Z,22.80
2018-07-22T07:39:43.267Z,22.80
2018-07-22T07:42:11.823Z,22.90
2018-07-22T07:44:40.308Z,23.00
2018-07-22T07:47:08.955Z,23.10
2018-07-22T07:49:42.203Z,23.50
2018-07-22T07:52:12.871Z,23.80
2018-07-22T07:54:41.488Z,23.80
2018-07-22T07:57:14.789Z,23.70
2018-07-22T07:59:46.191Z,23.70
2018-07-22T08:02:14.710Z,23.70
2018-07-22T08:04:43.181Z,23.70
2018-07-22T08:07:11.779Z,23.70
2018-07-22T08:09:40.378Z,23.90
2018-07-22T08:12:08.854Z,24.10
2018-07-22T08:14:37.350Z,24.30
2018-07-22T08:17:06.115Z,24.50
2018-07-22T08:19:34.669Z,24.80
2018-07-22T08:22:03.282Z,24.90
2018-07-22T08:24:31.782Z,24.80
2018-07-22T08:27:00.475Z,24.60
2018-07-22T08:29:31.067Z,24.60
2018-07-22T08:32:00.090Z,24.50
2018-07-22T08:34:28.809Z,24.50
2018-07-22T08:36:57.349Z,24.50
2018-07-22T08:39:28.177Z,24.40
2018-07-22T08:42:00.446Z,24.30
2018-07-22T08:44:29.105Z,24.30
2018-07-22T08:46:59.296Z,24.30
2018-07-22T08:49:31.933Z,24.40
2018-07-22T08:52:09.392Z,24.40
2018-07-22T08:54:43.646Z,24.50
2018-07-22T08:57:12.308Z,24.60
2018-07-22T08:59:40.936Z,24.60
2018-07-22T09:04:38.254Z,24.60
2018-07-22T09:07:10.166Z,24.90
2018-07-22T09:09:38.775Z,25.30
2018-07-22T09:12:07.375Z,25.70
2018-07-22T09:14:37.272Z,25.80
2018-07-22T09:17:07.710Z,25.70
2018-07-22T09:19:36.394Z,25.80
2018-07-22T09:22:05.027Z,25.80
2018-07-22T09:24:37.265Z,25.80
2018-07-22T09:27:15.860Z,25.90
2018-07-22T09:29:44.402Z,26.00
2018-07-22T09:32:12.948Z,26.10
2018-07-22T09:34:41.454Z,26.20
2018-07-22T09:37:10.034Z,26.30
2018-07-22T09:39:38.622Z,26.30
2018-07-22T09:42:07.247Z,26.30
2018-07-22T09:47:04.081Z,26.30
2018-07-22T09:49:39.137Z,26.50
2018-07-22T09:52:08.642Z,26.50
2018-07-22T09:54:37.178Z,26.50
2018-07-22T09:57:05.766Z,26.50
2018-07-22T09:59:34.328Z,26.50
2018-07-22T10:02:03.322Z,26.40
2018-07-22T10:04:31.919Z,26.40
2018-07-22T10:07:00.419Z,26.40
2018-07-22T10:09:29.824Z,26.60
2018-07-22T10:11:58.390Z,26.70
2018-07-22T10:14:29.269Z,26.90
2018-07-22T10:17:01.934Z,27.10
2018-07-22T10:19:30.935Z,27.20
2018-07-22T10:21:59.528Z,27.50
2018-07-22T10:24:28.108Z,27.80
2018-07-22T10:29:24.856Z,28.10
2018-07-22T10:31:54.027Z,28.10
2018-07-22T10:34:23.676Z,28.20
2018-07-22T10:36:53.105Z,28.30
2018-07-22T10:39:21.668Z,28.30
2018-07-22T10:41:50.259Z,28.30
2018-07-22T10:44:18.988Z,28.40
2018-07-22T10:46:47.547Z,28.40
2018-07-22T10:49:16.091Z,28.50
2018-07-22T10:51:44.668Z,28.60
2018-07-22T10:54:13.260Z,28.70
2018-07-22T10:56:41.867Z,28.70
2018-07-22T10:59:10.661Z,28.90
2018-07-22T11:01:42.452Z,29.10
2018-07-22T11:04:10.933Z,29.20
2018-07-22T11:06:39.452Z,29.30
2018-07-22T11:09:09.216Z,29.80
2018-07-22T11:11:37.970Z,30.20
2018-07-22T11:14:06.592Z,30.50
2018-07-22T11:16:35.047Z,30.90
2018-07-22T11:19:03.560Z,31.00
2018-07-22T11:21:32.088Z,31.30
2018-07-22T11:24:00.740Z,31.60
2018-07-22T11:26:29.279Z,31.80
2018-07-22T11:28:57.784Z,31.80
2018-07-22T11:31:26.565Z,31.80
2018-07-22T11:33:55.057Z,31.80
2018-07-22T11:36:23.644Z,31.80
2018-07-22T11:38:52.159Z,31.90
2018-07-22T11:41:20.691Z,31.90
2018-07-22T11:43:49.185Z,31.50
2018-07-22T11:46:17.700Z,31.50
2018-07-22T11:48:46.239Z,31.80
2018-07-22T11:51:14.760Z,32.10
2018-07-22T11:53:43.721Z,32.10
2018-07-22T11:56:12.250Z,32.10
2018-07-22T11:58:41.780Z,32.30
2018-07-22T12:01:10.293Z,32.30
2018-07-22T12:03:38.812Z,32.10
2018-07-22T12:06:07.301Z,32.20
2018-07-22T12:11:04.004Z,32.80
2018-07-22T12:13:32.505Z,32.90
2018-07-22T12:16:01.129Z,32.80
2018-07-22T12:18:29.667Z,34.70
2018-07-22T12:20:58.271Z,36.60
2018-07-22T12:23:26.854Z,38.00
2018-07-22T12:25:55.467Z,38.60
2018-07-22T12:28:24.065Z,39.30
2018-07-22T12:30:52.863Z,39.90
2018-07-22T12:33:27.899Z,40.30
2018-07-22T12:35:56.598Z,40.70
2018-07-22T12:38:25.088Z,41.00
2018-07-22T12:40:53.671Z,41.50
2018-07-22T12:43:24.646Z,41.50
2018-07-22T12:45:53.136Z,39.60
2018-07-22T12:48:21.968Z,38.50
2018-07-22T12:50:50.553Z,37.50
2018-07-22T12:53:19.127Z,35.70
2018-07-22T12:55:47.585Z,35.50
2018-07-22T12:58:16.116Z,35.50
2018-07-22T13:00:44.779Z,34.90
2018-07-22T13:03:18.884Z,34.50
2018-07-22T13:05:47.488Z,34.20
2018-07-22T13:08:16.344Z,33.70
2018-07-22T13:10:44.954Z,33.10
2018-07-22T13:13:13.811Z,33.80
2018-07-22T13:15:42.278Z,35.00
2018-07-22T13:18:10.873Z,35.80
2018-07-22T13:20:39.349Z,36.30
2018-07-22T13:23:08.619Z,38.30
2018-07-22T13:25:37.152Z,40.00
2018-07-22T13:28:05.835Z,39.20
2018-07-22T13:30:34.416Z,37.80
2018-07-22T13:33:02.949Z,37.70
2018-07-22T13:35:31.463Z,38.00
2018-07-22T13:38:00.185Z,38.20
2018-07-22T13:40:28.710Z,36.70
2018-07-22T13:42:57.245Z,35.00
2018-07-22T13:45:25.959Z,33.60
2018-07-22T13:47:54.439Z,32.40
2018-07-22T13:50:22.948Z,31.60
2018-07-22T13:52:51.379Z,31.10
2018-07-22T13:55:20.827Z,30.90
2018-07-22T13:57:49.311Z,30.70
2018-07-22T14:00:17.914Z,30.30
2018-07-22T14:02:46.399Z,29.90
2018-07-22T14:07:43.235Z,28.50
2018-07-22T14:10:11.804Z,27.90
2018-07-22T14:12:40.283Z,27.60
2018-07-22T14:15:08.955Z,27.40
2018-07-22T14:17:37.523Z,27.20
2018-07-22T14:20:06.264Z,27.00
2018-07-22T14:22:34.739Z,26.80
2018-07-22T14:25:03.347Z,26.70
2018-07-22T14:27:31.988Z,26.60
2018-07-22T14:30:00.476Z,26.60
2018-07-22T14:32:29.865Z,26.70
2018-07-22T14:34:58.469Z,27.00
2018-07-22T14:37:27.043Z,27.20
2018-07-22T14:39:55.653Z,27.40
2018-07-22T14:42:24.351Z,27.80
2018-07-22T14:47:21.046Z,29.00
2018-07-22T14:53:34.974Z,29.90
2018-07-22T14:56:03.447Z,30.30
2018-07-22T14:58:32.079Z,30.10
2018-07-22T15:01:00.578Z,30.00
2018-07-22T15:03:29.823Z,29.80
2018-07-22T15:05:58.387Z,29.40
2018-07-22T15:08:26.995Z,28.90
2018-07-22T15:11:02.247Z,28.50
2018-07-22T15:13:30.830Z,28.20
2018-07-22T15:15:59.330Z,28.10
2018-07-22T15:18:27.844Z,28.00
2018-07-22T15:20:56.467Z,27.90
2018-07-22T15:23:25.012Z,27.80
2018-07-22T15:25:53.474Z,27.70
2018-07-22T15:28:21.928Z,27.80
2018-07-22T15:30:50.589Z,28.00
2018-07-22T15:33:19.063Z,28.10
2018-07-22T15:35:47.580Z,27.90
2018-07-22T15:38:16.166Z,27.80
2018-07-22T15:40:44.670Z,27.50
2018-07-22T15:43:13.250Z,27.40
2018-07-22T15:45:41.808Z,27.40
2018-07-22T15:48:10.504Z,27.40
2018-07-22T15:50:39.022Z,27.40
2018-07-22T15:53:07.644Z,27.30
2018-07-22T15:55:36.347Z,27.20
2018-07-22T15:58:05.660Z,27.20
2018-07-22T16:00:34.239Z,27.00
2018-07-22T16:03:02.738Z,27.00
2018-07-22T16:05:31.413Z,27.00
2018-07-22T16:08:00.027Z,26.90
2018-07-22T16:10:28.587Z,26.80
2018-07-22T16:12:57.131Z,26.70
2018-07-22T16:15:25.711Z,26.70
2018-07-22T16:17:54.282Z,26.70
2018-07-22T16:20:24.358Z,26.90
2018-07-22T16:22:52.915Z,27.20
2018-07-22T16:25:21.500Z,27.60
2018-07-22T16:27:50.006Z,27.90
2018-07-22T16:30:18.779Z,28.00
2018-07-22T16:32:47.429Z,27.90
2018-07-22T16:35:15.987Z,27.80
2018-07-22T16:37:44.503Z,27.80
2018-07-22T16:40:13.047Z,28.00
2018-07-22T16:42:41.704Z,28.10
2018-07-22T16:45:10.380Z,28.10
2018-07-22T16:47:39.090Z,28.20
2018-07-22T16:50:07.676Z,28.20
2018-07-22T16:52:36.219Z,28.30
2018-07-22T16:55:04.864Z,28.30
2018-07-22T16:57:34.120Z,28.10
2018-07-22T17:00:02.850Z,27.80
2018-07-22T17:02:31.356Z,27.40
2018-07-22T17:05:00.704Z,27.00
2018-07-22T17:07:30.367Z,26.70
2018-07-22T17:09:59.770Z,26.50
2018-07-22T17:12:28.321Z,26.30
2018-07-22T17:14:57.140Z,26.10
2018-07-22T17:17:25.762Z,26.00
2018-07-22T17:19:54.280Z,25.80
2018-07-22T17:22:23.497Z,25.70
2018-07-22T17:24:51.983Z,25.60
2018-07-22T17:27:21.458Z,25.60
2018-07-22T17:29:49.967Z,25.60
2018-07-22T17:32:18.496Z,25.50
2018-07-22T17:34:46.971Z,25.50
2018-07-22T17:37:15.571Z,25.50
2018-07-22T17:39:44.465Z,25.40
2018-07-22T17:42:13.239Z,25.30
2018-07-22T17:44:41.817Z,25.30
2018-07-22T17:47:10.293Z,25.20
2018-07-22T17:49:38.881Z,25.10
2018-07-22T17:52:07.447Z,25.00
2018-07-22T17:54:40.148Z,25.00
2018-07-22T17:57:08.780Z,24.90
2018-07-22T17:59:37.360Z,24.90
2018-07-22T18:02:05.954Z,24.80
2018-07-22T18:04:34.548Z,24.90
2018-07-22T18:07:03.241Z,24.90
2018-07-22T18:09:32.048Z,24.90
2018-07-22T18:12:00.830Z,24.90
2018-07-22T18:14:29.355Z,24.80
2018-07-22T18:16:57.846Z,24.70
2018-07-22T18:19:26.376Z,24.60
2018-07-22T18:21:55.060Z,24.40
2018-07-22T18:24:23.593Z,24.30
2018-07-22T18:26:52.135Z,24.20
2018-07-22T18:29:20.796Z,24.10
2018-07-22T18:31:49.663Z,24.00
2018-07-22T18:34:19.867Z,23.90
2018-07-22T18:36:48.393Z,23.80
2018-07-22T18:39:16.968Z,23.70
2018-07-22T18:41:45.754Z,23.70
2018-07-22T18:44:14.318Z,23.60
2018-07-22T18:46:43.150Z,23.50
2018-07-22T18:49:12.147Z,23.40
2018-07-22T18:51:40.761Z,23.30
2018-07-22T18:54:09.560Z,23.30
2018-07-22T18:56:38.438Z,23.20
2018-07-22T18:59:07.257Z,23.20
2018-07-22T19:01:36.092Z,23.20
2018-07-22T19:04:04.915Z,23.10
2018-07-22T19:06:33.701Z,23.10
2018-07-22T19:09:02.712Z,23.10
2018-07-22T19:11:31.542Z,23.00
2018-07-22T19:14:02.742Z,22.90
2018-07-22T19:16:31.593Z,22.90
2018-07-22T19:19:00.377Z,22.80
2018-07-22T19:21:29.952Z,22.80
2018-07-22T19:24:04.767Z,22.70
2018-07-22T19:26:35.244Z,22.70
2018-07-22T19:29:06.840Z,22.70
2018-07-22T19:31:51.569Z,22.60
2018-07-22T19:34:33.774Z,22.60
2018-07-22T19:37:06.888Z,22.50
2018-07-22T19:40:03.662Z,22.50
2018-07-22T19:42:46.162Z,22.50
2018-07-22T19:45:43.472Z,22.40
2018-07-22T19:51:07.078Z,22.40
2018-07-22T19:53:45.217Z,22.40
2018-07-22T19:56:18.587Z,22.30
2018-07-22T19:58:48.642Z,22.30
2018-07-22T20:01:21.385Z,22.20
2018-07-22T20:03:50.605Z,22.20
2018-07-22T20:06:19.470Z,22.20
2018-07-22T20:08:48.344Z,22.10
2018-07-22T20:11:17.166Z,22.00
2018-07-22T20:13:45.992Z,22.00
2018-07-22T20:16:14.826Z,22.00
2018-07-22T20:18:43.726Z,21.90
2018-07-22T20:21:12.599Z,21.90
2018-07-22T20:23:41.456Z,21.80
2018-07-22T20:26:10.325Z,21.80
2018-07-22T20:28:38.947Z,21.80
2018-07-22T20:31:07.787Z,21.80
2018-07-22T20:33:36.403Z,21.80
2018-07-22T20:36:05.388Z,21.80
2018-07-22T20:38:36.076Z,21.80
2018-07-22T20:41:05.611Z,21.80
2018-07-22T20:43:34.547Z,21.80
2018-07-22T20:46:03.189Z,21.80
2018-07-22T20:48:31.755Z,21.80
2018-07-22T20:51:00.862Z,21.80
2018-07-22T20:53:32.253Z,21.80
2018-07-22T20:56:01.231Z,21.70
2018-07-22T20:58:35.045Z,21.70
2018-07-22T21:01:07.685Z,21.70
2018-07-22T21:03:42.718Z,21.70
2018-07-22T21:06:11.408Z,21.60
2018-07-22T21:08:43.190Z,21.60
2018-07-22T21:13:54.533Z,21.60
2018-07-22T21:16:24.121Z,21.50
2018-07-22T21:19:03.986Z,21.50
2018-07-22T21:21:32.688Z,21.50
2018-07-22T21:24:02.278Z,21.50
2018-07-22T21:26:30.807Z,21.50
2018-07-22T21:28:59.371Z,21.40
2018-07-22T21:31:28.682Z,21.40
2018-07-22T21:33:57.370Z,21.40
2018-07-22T21:38:54.055Z,21.40
2018-07-22T21:41:22.578Z,21.40
2018-07-22T21:43:51.326Z,21.30
2018-07-22T21:46:19.943Z,21.30
2018-07-22T21:48:48.459Z,21.30
2018-07-22T21:51:17.012Z,21.20
2018-07-22T21:53:45.673Z,21.20
2018-07-22T21:56:14.138Z,21.10
2018-07-22T21:58:43.962Z,21.10
2018-07-22T22:01:13.056Z,21.00
2018-07-22T22:03:41.595Z,20.90
2018-07-22T22:06:10.655Z,20.90
2018-07-22T22:08:39.152Z,20.80
2018-07-22T22:11:07.746Z,20.70
2018-07-22T22:13:36.260Z,20.70
2018-07-22T22:16:06.208Z,20.60
2018-07-22T22:18:34.771Z,20.60
2018-07-22T22:23:31.741Z,20.50
2018-07-22T22:26:00.223Z,20.50
2018-07-22T22:28:28.762Z,20.50
2018-07-22T22:30:57.323Z,20.50
2018-07-22T22:33:25.810Z,20.50
2018-07-22T22:35:54.579Z,20.40
2018-07-22T22:38:23.126Z,20.40
2018-07-22T22:40:51.556Z,20.30
2018-07-22T22:43:20.126Z,20.30
2018-07-22T22:45:48.631Z,20.30
2018-07-22T22:48:17.186Z,20.30
2018-07-22T22:50:46.068Z,20.30
2018-07-22T22:53:14.644Z,20.30
2018-07-22T22:55:43.231Z,20.20
2018-07-22T22:58:24.471Z,20.20
2018-07-22T23:00:52.996Z,20.20
2018-07-22T23:03:21.655Z,20.20
2018-07-22T23:05:50.202Z,20.20
2018-07-22T23:08:18.898Z,20.20
2018-07-22T23:10:47.361Z,20.20
2018-07-22T23:13:20.717Z,20.20
2018-07-22T23:15:49.178Z,20.20
2018-07-22T23:18:17.792Z,20.20
2018-07-22T23:20:46.288Z,20.20
2018-07-22T23:23:14.778Z,20.20
2018-07-22T23:25:43.326Z,20.10
2018-07-22T23:28:11.898Z,20.10
2018-07-22T23:30:40.560Z,20.10
2018-07-22T23:33:09.084Z,20.00
2018-07-22T23:35:37.669Z,20.00
2018-07-22T23:38:06.414Z,19.90
2018-07-22T23:40:34.967Z,19.90
2018-07-22T23:43:03.477Z,19.80
2018-07-22T23:45:31.971Z,19.80
2018-07-22T23:48:00.563Z,19.80
2018-07-22T23:50:29.062Z,19.80
2018-07-22T23:52:57.760Z,19.70
2018-07-22T23:55:26.348Z,19.70
2018-07-22T23:57:54.800Z,19.60
